Time;durP1;ratioP1;P1;durP2;ratioP2;P2;SDS_P1;SDS_P2;PMS_P1;PMS_P2;Temp;Humidity;BMP_temperature;BMP_pressure;BME280_temperature;BME280_humidity;BME280_pressure;Samples;Min_cycle;Max_cycle;Signal;HPM_P1;HPM_P2
2021/09/17 00:01:00;;;;;;;3.40;2.00;;;22.70;73.50;;;;;;5071643;28;20035;-62
2021/09/17 00:03:26;;;;;;;4.65;1.85;;;22.70;73.50;;;;;;5071833;28;20126;-60
2021/09/17 00:05:52;;;;;;;3.47;1.95;;;22.70;73.40;;;;;;5071789;28;20442;-62
2021/09/17 00:08:18;;;;;;;4.15;2.20;;;22.70;73.10;;;;;;5071527;28;20052;-61
2021/09/17 00:10:44;;;;;;;4.00;2.10;;;22.70;73.20;;;;;;5054003;28;20024;-61
2021/09/17 00:13:09;;;;;;;6.32;2.45;;;22.70;73.10;;;;;;5070880;28;20459;-64
2021/09/17 00:15:35;;;;;;;4.00;2.30;;;22.70;73.50;;;;;;5071699;28;20484;-61
2021/09/17 00:18:01;;;;;;;5.32;2.40;;;22.80;73.40;;;;;;5070655;28;20465;-62
2021/09/17 00:20:27;;;;;;;3.95;2.55;;;22.80;73.10;;;;;;5071245;28;20473;-61
2021/09/17 00:22:52;;;;;;;5.13;2.75;;;22.80;73.20;;;;;;5071174;28;20032;-61
2021/09/17 00:25:18;;;;;;;5.25;2.60;;;22.80;73.30;;;;;;5060573;28;20485;-62
2021/09/17 00:27:44;;;;;;;7.28;3.10;;;22.80;73.10;;;;;;5091320;28;20028;-62
2021/09/17 00:30:11;;;;;;;8.18;2.97;;;22.80;73.20;;;;;;5090829;28;20119;-62
2021/09/17 00:32:37;;;;;;;4.35;2.42;;;22.70;73.20;;;;;;5094535;28;20038;-61
2021/09/17 00:35:03;;;;;;;5.60;2.83;;;22.70;73.30;;;;;;5077058;28;20492;-62
2021/09/17 00:37:29;;;;;;;5.10;2.63;;;22.70;73.40;;;;;;5077303;28;20107;-61
2021/09/17 00:39:54;;;;;;;5.45;2.72;;;22.70;73.50;;;;;;5077030;28;20456;-60
2021/09/17 00:42:20;;;;;;;4.07;2.65;;;22.70;73.60;;;;;;5076774;28;20028;-62
2021/09/17 00:44:46;;;;;;;7.88;3.10;;;22.70;73.70;;;;;;5095921;28;20073;-62
2021/09/17 00:47:11;;;;;;;7.40;3.20;;;22.70;73.70;;;;;;5076346;28;20071;-62
2021/09/17 00:49:37;;;;;;;5.43;2.70;;;22.70;73.90;;;;;;5095020;28;20028;-62
2021/09/17 00:52:03;;;;;;;6.30;3.22;;;22.60;73.80;;;;;;5076373;28;20115;-63
2021/09/17 00:54:34;;;;;;;8.00;3.13;;;22.60;73.90;;;;;;5094964;28;20024;-63
2021/09/17 00:57:00;;;;;;;8.18;3.33;;;22.60;74.10;;;;;;5095325;28;20134;-62
2021/09/17 00:59:25;;;;;;;4.53;3.10;;;22.60;74.00;;;;;;5094347;28;20582;-62
2021/09/17 01:01:51;;;;;;;4.88;2.92;;;22.60;74.10;;;;;;5076778;28;20103;-62
2021/09/17 01:04:17;;;;;;;5.70;3.70;;;22.60;74.20;;;;;;5076147;28;20500;-62
2021/09/17 01:06:43;;;;;;;5.93;3.47;;;22.60;74.30;;;;;;5094941;28;20031;-61
2021/09/17 01:09:09;;;;;;;6.53;3.17;;;22.60;74.20;;;;;;5076124;28;20028;-62
2021/09/17 01:11:35;;;;;;;6.78;3.53;;;22.70;74.20;;;;;;5094807;28;20035;-61
2021/09/17 01:14:02;;;;;;;5.50;3.15;;;22.60;74.20;;;;;;5094940;28;20209;-61
2021/09/17 01:16:28;;;;;;;5.93;3.00;;;22.60;74.20;;;;;;5093905;28;20196;-61
2021/09/17 01:18:54;;;;;;;4.95;3.42;;;22.60;74.30;;;;;;5076386;28;20509;-61
2021/09/17 01:21:20;;;;;;;7.07;3.58;;;22.60;74.40;;;;;;5094093;28;20024;-61
2021/09/17 01:23:47;;;;;;;7.70;3.90;;;22.60;74.30;;;;;;5094302;28;20495;-62
2021/09/17 01:26:13;;;;;;;10.32;3.22;;;22.60;74.80;;;;;;5078531;28;20110;-63
2021/09/17 01:28:39;;;;;;;7.85;2.47;;;22.50;75.00;;;;;;5056143;28;20098;-62
2021/09/17 01:31:05;;;;;;;3.33;2.17;;;22.50;74.50;;;;;;5074445;28;20025;-62
2021/09/17 01:33:31;;;;;;;5.90;2.28;;;22.40;73.70;;;;;;5074016;28;20394;-61
2021/09/17 01:36:03;;;;;;;3.88;2.20;;;22.30;73.00;;;;;;5056164;28;20020;-61
2021/09/17 01:38:30;;;;;;;4.00;2.20;;;22.20;72.70;;;;;;5073472;28;20025;-61
2021/09/17 01:40:56;;;;;;;3.00;2.28;;;22.10;72.50;;;;;;5074197;28;20031;-62
2021/09/17 01:43:23;;;;;;;3.63;2.00;;;22.10;72.40;;;;;;5072153;28;20492;-61
2021/09/17 01:45:49;;;;;;;3.45;2.10;;;22.10;72.40;;;;;;5074244;28;20029;-62
2021/09/17 01:48:15;;;;;;;2.00;1.70;;;22.10;72.20;;;;;;5073033;28;20035;-62
2021/09/17 01:50:41;;;;;;;2.30;1.90;;;22.00;71.40;;;;;;5073441;28;20036;-61
2021/09/17 01:53:07;;;;;;;3.13;2.30;;;21.90;71.40;;;;;;5073972;28;20021;-62
2021/09/17 01:55:33;;;;;;;2.80;1.85;;;21.90;71.10;;;;;;5055872;28;20032;-61
2021/09/17 01:57:58;;;;;;;3.97;1.88;;;21.90;70.70;;;;;;5073716;28;20028;-62
2021/09/17 02:00:43;;;;;;;3.45;2.17;;;21.90;70.40;;;;;;5073077;28;20105;-61
2021/09/17 02:03:09;;;;;;;3.40;2.20;;;21.80;69.70;;;;;;5073542;28;20111;-63
2021/09/17 02:05:34;;;;;;;3.38;1.95;;;21.80;69.80;;;;;;5073976;28;20162;-61
2021/09/17 02:08:00;;;;;;;4.55;2.28;;;21.80;69.50;;;;;;5055910;28;20029;-61
2021/09/17 02:10:26;;;;;;;4.68;2.20;;;21.80;69.50;;;;;;5073228;28;20400;-62
2021/09/17 02:12:51;;;;;;;5.57;3.00;;;21.70;69.50;;;;;;5073642;28;20025;-62
2021/09/17 02:15:17;;;;;;;3.28;2.65;;;21.70;69.40;;;;;;5072802;28;20086;-61
2021/09/17 02:17:43;;;;;;;5.00;3.33;;;21.70;69.30;;;;;;5055362;28;20041;-61
2021/09/17 02:20:09;;;;;;;3.67;3.25;;;21.70;68.10;;;;;;5073618;28;20035;-62
2021/09/17 02:22:35;;;;;;;5.32;4.57;;;21.70;68.30;;;;;;5073202;28;20025;-62
2021/09/17 02:25:01;;;;;;;6.80;5.22;;;21.60;67.70;;;;;;5073470;28;20144;-62
2021/09/17 02:27:27;;;;;;;5.75;5.10;;;21.50;67.50;;;;;;5072837;28;20029;-62
2021/09/17 02:29:53;;;;;;;7.28;4.07;;;21.50;67.80;;;;;;5073392;28;20039;-61
2021/09/17 02:32:19;;;;;;;4.03;3.42;;;21.50;68.00;;;;;;5072578;28;20024;-62
2021/09/17 02:34:45;;;;;;;4.18;3.30;;;21.50;67.70;;;;;;5073055;28;20024;-61
2021/09/17 02:37:11;;;;;;;6.18;2.75;;;21.50;67.10;;;;;;5072675;28;20044;-71
2021/09/17 02:39:36;;;;;;;3.30;2.72;;;21.40;67.20;;;;;;5072792;28;20024;-61
2021/09/17 02:42:04;;;;;;;4.43;2.60;;;21.40;67.30;;;;;;5073315;28;20040;-62
2021/09/17 02:44:30;;;;;;;4.65;2.58;;;21.30;68.00;;;;;;5054320;28;20081;-61
2021/09/17 02:46:56;;;;;;;4.18;2.40;;;21.20;67.40;;;;;;5073115;28;20032;-61
2021/09/17 02:49:21;;;;;;;3.88;2.10;;;21.20;67.70;;;;;;5072454;28;20414;-61
2021/09/17 02:51:47;;;;;;;3.78;2.45;;;21.10;67.90;;;;;;5072498;28;20024;-62
2021/09/17 02:54:13;;;;;;;2.95;2.47;;;21.00;68.20;;;;;;5053757;28;20113;-62
2021/09/17 02:56:39;;;;;;;3.63;2.25;;;21.00;68.30;;;;;;5054960;28;20124;-62
2021/09/17 02:59:05;;;;;;;3.55;2.55;;;21.00;68.40;;;;;;5054814;28;20029;-61
2021/09/17 03:01:30;;;;;;;4.82;3.03;;;21.00;68.40;;;;;;5072141;28;20465;-62
2021/09/17 03:03:56;;;;;;;6.78;3.35;;;21.00;68.30;;;;;;5072324;28;20031;-61
2021/09/17 03:06:22;;;;;;;5.32;3.83;;;21.00;68.00;;;;;;5054162;28;20058;-65
2021/09/17 03:08:49;;;;;;;4.57;3.55;;;20.90;68.40;;;;;;5072281;28;20032;-61
2021/09/17 03:11:15;;;;;;;5.07;3.95;;;20.90;68.40;;;;;;5072080;28;20066;-61
2021/09/17 03:13:41;;;;;;;5.25;4.60;;;20.90;68.50;;;;;;5072169;28;20052;-62
2021/09/17 03:16:07;;;;;;;5.30;4.22;;;20.80;68.40;;;;;;5054497;28;20056;-61
2021/09/17 03:18:34;;;;;;;6.80;4.82;;;20.80;68.60;;;;;;5072306;28;20028;-61
2021/09/17 03:21:00;;;;;;;6.85;4.97;;;20.70;68.60;;;;;;5072270;28;20071;-61
2021/09/17 03:23:26;;;;;;;7.68;4.70;;;20.70;68.60;;;;;;5071474;28;20052;-62
2021/09/17 03:25:52;;;;;;;5.47;4.70;;;20.70;68.80;;;;;;5072152;28;20044;-61
2021/09/17 03:28:18;;;;;;;6.22;4.22;;;20.60;68.80;;;;;;5053661;28;20098;-62
2021/09/17 03:30:44;;;;;;;4.88;3.97;;;20.50;69.40;;;;;;5072331;28;20032;-62
2021/09/17 03:33:11;;;;;;;5.70;3.72;;;20.50;69.10;;;;;;5072472;28;20439;-62
2021/09/17 03:35:40;;;;;;;4.57;4.18;;;20.50;69.30;;;;;;5071697;28;20036;-61
2021/09/17 03:38:06;;;;;;;6.65;4.38;;;20.50;68.90;;;;;;5071861;28;20020;-61
2021/09/17 03:40:33;;;;;;;6.07;4.45;;;20.50;68.90;;;;;;5071486;28;20025;-60
2021/09/17 03:42:59;;;;;;;7.65;4.13;;;20.50;69.20;;;;;;5071799;28;20024;-61
2021/09/17 03:45:25;;;;;;;5.72;5.00;;;20.50;69.20;;;;;;5071153;28;20390;-61
2021/09/17 03:47:51;;;;;;;6.05;5.13;;;20.40;69.00;;;;;;5071619;28;20468;-61
2021/09/17 03:50:16;;;;;;;7.53;5.35;;;20.40;69.10;;;;;;5070989;28;20534;-70
2021/09/17 03:52:42;;;;;;;6.28;5.63;;;20.40;69.20;;;;;;5054197;28;20028;-63
2021/09/17 03:55:08;;;;;;;7.70;5.88;;;20.40;69.00;;;;;;5071555;28;20047;-62
2021/09/17 03:57:34;;;;;;;6.82;5.93;;;20.40;69.00;;;;;;5071178;28;20032;-62
2021/09/17 04:00:00;;;;;;;7.18;5.00;;;20.40;69.00;;;;;;5053404;28;20031;-61
2021/09/17 04:02:25;;;;;;;6.13;5.53;;;20.40;69.00;;;;;;5053158;28;20031;-61
2021/09/17 04:04:51;;;;;;;7.90;5.32;;;20.30;69.40;;;;;;5071604;28;20021;-61
2021/09/17 04:07:17;;;;;;;5.38;4.68;;;20.30;69.20;;;;;;5073684;28;20036;-61
2021/09/17 04:09:43;;;;;;;8.02;5.00;;;20.30;69.20;;;;;;5075886;28;20032;-61
2021/09/17 04:12:09;;;;;;;5.03;4.38;;;20.30;69.30;;;;;;5075564;28;20032;-61
2021/09/17 04:14:35;;;;;;;6.10;5.15;;;20.30;69.20;;;;;;5075272;28;20035;-61
2021/09/17 04:17:01;;;;;;;6.57;5.63;;;20.30;68.70;;;;;;5057519;28;20111;-62
2021/09/17 04:19:26;;;;;;;6.10;5.45;;;20.30;68.30;;;;;;5074858;28;20110;-62
2021/09/17 04:21:52;;;;;;;6.22;5.50;;;20.20;68.10;;;;;;5075653;28;20024;-62
2021/09/17 04:24:19;;;;;;;5.30;4.63;;;20.20;68.20;;;;;;5075201;28;20017;-62
2021/09/17 04:26:45;;;;;;;6.47;5.05;;;20.30;68.50;;;;;;5058972;28;20049;-62
2021/09/17 04:29:10;;;;;;;8.23;5.47;;;20.30;68.40;;;;;;5057561;28;20564;-62
2021/09/17 04:31:36;;;;;;;8.98;5.80;;;20.20;68.00;;;;;;5074646;28;20461;-61
2021/09/17 04:34:02;;;;;;;8.68;6.00;;;20.30;67.90;;;;;;5055475;28;20484;-61
2021/09/17 04:36:27;;;;;;;7.65;5.65;;;20.30;68.10;;;;;;5073973;28;20036;-62
2021/09/17 04:38:53;;;;;;;6.95;6.18;;;20.30;68.60;;;;;;5074308;28;20450;-61
2021/09/17 04:41:19;;;;;;;9.15;5.93;;;20.30;67.90;;;;;;5073912;28;20492;-62
2021/09/17 04:43:44;;;;;;;7.88;6.93;;;20.30;68.10;;;;;;5055159;28;20381;-62
2021/09/17 04:46:10;;;;;;;9.40;6.25;;;20.30;68.30;;;;;;5073463;28;20374;-61
2021/09/17 04:48:36;;;;;;;9.73;7.30;;;20.30;68.20;;;;;;5056499;28;20114;-62
2021/09/17 04:51:01;;;;;;;10.65;7.70;;;20.30;68.40;;;;;;5057159;28;20033;-62
2021/09/17 04:53:27;;;;;;;7.95;6.50;;;20.30;68.70;;;;;;5074304;28;20132;-61
2021/09/17 04:55:53;;;;;;;8.88;7.57;;;20.30;69.20;;;;;;5074813;28;20029;-61
2021/09/17 04:58:19;;;;;;;9.90;7.57;;;20.30;69.10;;;;;;5056705;28;20462;-63
2021/09/17 05:00:44;;;;;;;8.60;7.32;;;20.30;69.30;;;;;;5074288;28;20490;-62
2021/09/17 05:03:10;;;;;;;11.82;7.30;;;20.20;69.40;;;;;;5074605;28;20021;-62
2021/09/17 05:05:36;;;;;;;8.27;7.10;;;20.20;69.60;;;;;;5056018;28;20036;-62
2021/09/17 05:08:02;;;;;;;8.10;7.30;;;20.30;69.40;;;;;;5056704;28;20031;-61
2021/09/17 05:10:28;;;;;;;7.75;6.68;;;20.20;69.10;;;;;;5074153;28;20491;-61
2021/09/17 05:12:53;;;;;;;8.00;6.40;;;20.10;69.60;;;;;;5074248;28;20028;-62
2021/09/17 05:15:19;;;;;;;12.30;6.93;;;20.20;69.50;;;;;;5055375;28;20035;-65
2021/09/17 05:17:45;;;;;;;12.93;6.95;;;20.20;69.50;;;;;;5057683;28;20089;-62
2021/09/17 05:20:12;;;;;;;8.45;7.03;;;20.20;69.00;;;;;;5057583;28;20032;-62
2021/09/17 05:22:38;;;;;;;8.23;5.32;;;20.20;68.90;;;;;;5055866;28;20042;-63
2021/09/17 05:25:04;;;;;;;7.25;5.90;;;20.30;69.10;;;;;;5059935;28;20134;-63
2021/09/17 05:27:29;;;;;;;13.65;7.50;;;20.30;69.10;;;;;;5093548;28;20032;-62
2021/09/17 05:29:55;;;;;;;11.10;7.35;;;20.30;68.90;;;;;;5094389;28;20035;-62
2021/09/17 05:32:21;;;;;;;12.70;7.13;;;20.40;68.70;;;;;;5094250;28;20032;-61
2021/09/17 05:34:48;;;;;;;64.78;14.05;;;20.40;68.70;;;;;;5093949;28;20388;-62
2021/09/17 05:37:14;;;;;;;177.32;29.63;;;20.40;68.80;;;;;;5076227;28;20210;-62
2021/09/17 05:39:40;;;;;;;75.13;16.90;;;20.50;68.60;;;;;;5075786;28;20034;-61
2021/09/17 05:42:06;;;;;;;174.20;27.13;;;20.50;68.70;;;;;;5076179;28;20024;-61
2021/09/17 05:44:32;;;;;;;122.47;21.98;;;20.50;68.50;;;;;;5093511;28;20112;-60
2021/09/17 05:46:58;;;;;;;146.45;24.17;;;20.50;67.70;;;;;;5076067;28;20491;-62
2021/09/17 05:49:23;;;;;;;280.17;39.75;;;20.50;67.50;;;;;;5094558;28;20028;-62
2021/09/17 05:51:49;;;;;;;171.18;28.30;;;20.60;67.30;;;;;;5093690;28;20024;-62
2021/09/17 05:54:15;;;;;;;209.02;31.23;;;20.60;67.20;;;;;;5076171;28;20032;-63
2021/09/17 05:56:40;;;;;;;141.88;24.77;;;20.70;66.70;;;;;;5093193;28;20483;-61
2021/09/17 05:59:06;;;;;;;143.88;23.73;;;20.80;66.90;;;;;;5093384;28;20032;-61
2021/09/17 06:01:32;;;;;;;187.07;29.90;;;20.90;66.80;;;;;;5093525;28;20030;-62
2021/09/17 06:03:58;;;;;;;145.57;24.27;;;20.90;66.50;;;;;;5093637;28;20032;-61
2021/09/17 06:06:23;;;;;;;235.75;33.38;;;21.00;66.10;;;;;;5075225;28;20024;-61
2021/09/17 06:08:49;;;;;;;283.52;42.03;;;21.10;65.80;;;;;;5093011;28;20040;-62
2021/09/17 06:11:16;;;;;;;219.82;38.35;;;21.10;65.90;;;;;;5093904;28;20028;-61
2021/09/17 06:13:42;;;;;;;170.63;28.17;;;21.30;65.60;;;;;;5092719;28;20434;-61
2021/09/17 06:16:08;;;;;;;125.45;22.55;;;21.20;65.30;;;;;;5075677;28;20177;-62
2021/09/17 06:18:33;;;;;;;139.77;25.95;;;21.20;64.70;;;;;;5093160;28;20473;-62
2021/09/17 06:20:59;;;;;;;256.38;37.60;;;21.20;64.90;;;;;;5075262;28;20441;-60
2021/09/17 06:23:27;;;;;;;246.15;37.30;;;21.10;64.60;;;;;;5074440;28;20039;-63
2021/09/17 06:25:53;;;;;;;158.18;27.50;;;21.10;64.80;;;;;;5082278;28;20048;-63
2021/09/17 06:28:20;;;;;;;194.32;31.38;;;21.20;65.10;;;;;;5054651;28;20032;-63
2021/09/17 06:30:46;;;;;;;131.98;22.58;;;21.20;64.90;;;;;;5071847;28;20035;-63
2021/09/17 06:33:11;;;;;;;150.18;25.60;;;21.40;64.30;;;;;;5072963;28;20020;-64
2021/09/17 06:35:37;;;;;;;125.93;20.98;;;21.40;63.50;;;;;;5053997;28;20036;-63
2021/09/17 06:38:03;;;;;;;97.07;17.08;;;21.40;63.30;;;;;;5072676;28;20036;-62
2021/09/17 06:40:29;;;;;;;29.77;9.57;;;21.40;63.20;;;;;;5072098;28;20040;-61
2021/09/17 06:42:55;;;;;;;26.55;8.88;;;21.50;63.20;;;;;;5072192;28;20024;-61
2021/09/17 06:45:21;;;;;;;17.15;8.70;;;21.60;63.00;;;;;;5054122;28;20027;-61
2021/09/17 06:47:54;;;;;;;16.17;9.18;;;21.80;62.60;;;;;;5053729;28;20036;-61
2021/09/17 06:50:23;;;;;;;9.63;8.38;;;21.90;61.60;;;;;;5072655;28;20086;-61
2021/09/17 06:52:50;;;;;;;12.00;9.10;;;22.10;61.50;;;;;;5071815;28;20035;-60
2021/09/17 06:55:18;;;;;;;11.82;8.63;;;22.30;60.80;;;;;;5054638;28;20021;-61
2021/09/17 06:57:49;;;;;;;15.27;8.50;;;22.60;59.90;;;;;;5054078;28;20139;-62
2021/09/17 07:00:17;;;;;;;13.52;7.65;;;22.60;59.30;;;;;;5072256;28;20056;-61
2021/09/17 07:02:43;;;;;;;12.30;6.88;;;22.80;58.80;;;;;;5072297;28;20051;-61
2021/09/17 07:05:09;;;;;;;10.13;6.93;;;22.70;57.50;;;;;;5072283;28;20093;-62
2021/09/17 07:07:35;;;;;;;8.85;7.20;;;22.70;57.70;;;;;;5071351;28;20032;-62
2021/09/17 07:10:03;;;;;;;9.27;7.10;;;22.70;57.70;;;;;;5072022;28;20032;-62
2021/09/17 07:12:29;;;;;;;13.63;7.22;;;22.80;57.50;;;;;;5071811;28;20166;-62
2021/09/17 07:14:55;;;;;;;30.13;8.23;;;22.80;56.70;;;;;;5071563;28;20062;-62
2021/09/17 07:17:21;;;;;;;130.30;23.17;;;22.80;56.60;;;;;;5072301;28;20115;-61
2021/09/17 07:19:46;;;;;;;72.75;13.00;;;22.90;56.40;;;;;;5071179;28;20024;-62
2021/09/17 07:22:12;;;;;;;149.80;23.60;;;22.80;56.90;;;;;;5071597;28;20024;-62
2021/09/17 07:24:38;;;;;;;215.98;28.55;;;22.80;56.90;;;;;;5069951;28;20036;-68
2021/09/17 07:27:04;;;;;;;125.55;21.50;;;23.10;56.70;;;;;;5071910;28;20090;-62
2021/09/17 07:29:48;;;;;;;353.70;50.47;;;23.20;56.50;;;;;;5053943;28;20473;-61
2021/09/17 07:32:14;;;;;;;154.52;25.20;;;23.30;56.40;;;;;;5070411;28;20024;-61
2021/09/17 07:34:40;;;;;;;159.50;25.75;;;23.50;55.80;;;;;;5071252;28;20099;-62
2021/09/17 07:37:06;;;;;;;132.07;24.17;;;23.80;54.90;;;;;;5070621;28;20040;-64
2021/09/17 07:39:32;;;;;;;96.18;17.65;;;24.10;54.40;;;;;;5053535;28;20041;-61
2021/09/17 07:41:58;;;;;;;189.00;28.48;;;24.20;53.20;;;;;;5069389;28;20169;-63
2021/09/17 07:44:23;;;;;;;213.13;30.63;;;24.40;52.60;;;;;;5070858;28;20408;-63
2021/09/17 07:46:49;;;;;;;239.70;38.78;;;24.60;52.50;;;;;;5069880;28;20050;-62
2021/09/17 07:49:15;;;;;;;217.27;33.53;;;25.50;51.80;;;;;;5071126;28;20029;-61
2021/09/17 07:51:41;;;;;;;204.38;31.02;;;26.40;50.00;;;;;;5052722;28;20089;-63
2021/09/17 07:54:07;;;;;;;246.43;42.95;;;26.60;48.30;;;;;;5071009;28;20040;-63
2021/09/17 07:56:32;;;;;;;339.63;50.90;;;26.60;48.20;;;;;;5053260;28;20031;-62
2021/09/17 07:58:58;;;;;;;145.98;25.20;;;26.50;47.90;;;;;;5052789;28;20499;-60
2021/09/17 08:01:24;;;;;;;216.30;32.65;;;26.80;47.50;;;;;;5070887;28;20211;-62
2021/09/17 08:03:50;;;;;;;244.45;34.60;;;27.60;46.50;;;;;;5070755;28;20470;-61
2021/09/17 08:08:59;;;;;;;198.18;33.63;;;28.80;44.80;;;;;;5070831;28;20401;-61
2021/09/17 08:11:25;;;;;;;158.85;25.45;;;31.50;42.30;;;;;;5053651;28;20025;-62
2021/09/17 08:13:51;;;;;;;157.73;28.13;;;34.00;38.10;;;;;;5052628;28;20025;-60
2021/09/17 08:16:17;;;;;;;49.90;10.07;;;35.40;35.10;;;;;;5071457;28;20028;-61
2021/09/17 08:18:45;;;;;;;194.25;34.10;;;36.60;33.20;;;;;;5053194;28;20032;-62
2021/09/17 08:21:11;;;;;;;221.63;36.75;;;37.70;31.20;;;;;;5053127;28;20032;-61
2021/09/17 08:23:38;;;;;;;223.07;33.47;;;37.90;30.40;;;;;;5053304;28;20111;-61
2021/09/17 08:26:05;;;;;;;145.95;28.58;;;38.50;30.40;;;;;;5072947;28;20048;-61
2021/09/17 08:28:31;;;;;;;137.93;23.88;;;38.70;29.80;;;;;;5091138;28;20024;-62
2021/09/17 08:30:59;;;;;;;131.77;20.27;;;38.10;29.50;;;;;;5072090;28;20028;-61
2021/09/17 08:33:26;;;;;;;182.80;31.83;;;36.20;30.00;;;;;;5091200;28;20119;-61
2021/09/17 08:35:52;;;;;;;126.30;22.83;;;34.20;32.30;;;;;;5072217;28;20027;-62
2021/09/17 08:38:19;;;;;;;282.63;39.38;;;32.90;33.60;;;;;;5090734;28;20031;-62
2021/09/17 08:40:44;;;;;;;234.43;34.33;;;31.50;35.10;;;;;;5090235;28;20101;-62
2021/09/17 08:43:10;;;;;;;157.23;24.35;;;30.50;36.90;;;;;;5090953;28;20438;-62
2021/09/17 08:45:37;;;;;;;225.18;33.97;;;29.80;37.50;;;;;;5090513;28;20028;-62
2021/09/17 08:48:21;;;;;;;190.18;29.40;;;29.20;38.40;;;;;;5071996;28;20361;-62
2021/09/17 08:50:48;;;;;;;118.85;17.92;;;28.70;39.00;;;;;;5075061;28;20028;-63
2021/09/17 08:53:15;;;;;;;79.32;14.55;;;28.00;39.80;;;;;;5092708;28;20103;-63
2021/09/17 08:55:41;;;;;;;99.20;16.88;;;27.40;41.20;;;;;;5075837;28;20035;-69
2021/09/17 08:58:07;;;;;;;104.95;17.98;;;27.00;42.30;;;;;;5094842;28;20032;-62
2021/09/17 09:00:33;;;;;;;146.00;25.83;;;26.70;43.50;;;;;;5076114;28;20046;-63
2021/09/17 09:03:18;;;;;;;102.43;19.20;;;26.40;44.50;;;;;;5093802;28;20031;-62
2021/09/17 09:05:44;;;;;;;123.35;21.40;;;26.20;44.70;;;;;;5093875;28;20024;-61
2021/09/17 09:08:10;;;;;;;32.65;9.52;;;26.00;45.30;;;;;;5094707;28;20036;-62
2021/09/17 09:13:20;;;;;;;12.27;6.30;;;25.80;46.40;;;;;;5093532;28;20088;-62
2021/09/17 09:15:45;;;;;;;20.17;6.68;;;25.70;46.10;;;;;;5076198;28;20111;-61
2021/09/17 09:18:13;;;;;;;7.57;5.07;;;25.70;45.80;;;;;;5076090;28;20124;-61
2021/09/17 09:20:43;;;;;;;21.55;5.38;;;25.90;45.00;;;;;;5075584;28;20157;-61
2021/09/17 09:23:23;;;;;;;8.00;3.97;;;26.20;44.40;;;;;;5075856;28;20406;-61
2021/09/17 09:25:55;;;;;;;7.00;3.90;;;26.40;42.60;;;;;;5083605;28;20052;-61
2021/09/17 09:28:35;;;;;;;7.63;4.45;;;26.40;42.30;;;;;;5055440;28;20033;-58
2021/09/17 09:31:18;;;;;;;6.70;4.38;;;26.30;42.60;;;;;;5054342;28;20131;-60
2021/09/17 09:33:44;;;;;;;;;;;26.30;42.20;;;;;;5054146;28;20036;-66
2021/09/17 09:36:12;;;;;;;6.72;4.80;;;26.30;42.60;;;;;;5072515;28;19924;-61
2021/09/17 09:38:44;;;;;;;10.55;4.50;;;26.20;43.40;;;;;;5071701;28;20024;-61
2021/09/17 09:41:17;;;;;;;8.95;4.85;;;26.10;44.00;;;;;;5072748;28;20032;-61
2021/09/17 09:44:14;;;;;;;7.45;4.68;;;26.30;43.70;;;;;;5072503;28;20079;-63
2021/09/17 09:46:43;;;;;;;9.82;4.65;;;26.60;43.90;;;;;;5068901;28;20044;-61
2021/09/17 09:49:29;;;;;;;8.98;5.90;;;26.80;43.20;;;;;;5072613;28;20032;-62
2021/09/17 09:51:59;;;;;;;6.93;4.55;;;26.80;42.70;;;;;;5053835;28;20037;-62
2021/09/17 09:54:30;;;;;;;6.47;4.80;;;26.80;42.70;;;;;;5053973;28;20055;-62
2021/09/17 09:56:58;;;;;;;7.38;4.63;;;26.70;42.60;;;;;;5071255;28;20503;-61
2021/09/17 09:59:30;;;;;;;7.43;4.13;;;26.70;42.50;;;;;;5072350;28;20048;-63
2021/09/17 10:01:59;;;;;;;9.05;4.63;;;26.70;42.50;;;;;;5053422;28;20035;-62
2021/09/17 10:04:27;;;;;;;7.18;4.13;;;26.70;42.30;;;;;;5071127;28;20021;-61
2021/09/17 10:07:04;;;;;;;6.82;4.10;;;26.80;42.40;;;;;;5036940;28;20482;-62
2021/09/17 10:09:31;;;;;;;8.63;4.10;;;26.70;42.20;;;;;;5053101;28;20025;-60
2021/09/17 10:11:59;;;;;;;9.88;4.35;;;26.40;42.90;;;;;;5062369;28;20095;-62
2021/09/17 10:14:27;;;;;;;12.75;3.88;;;25.90;43.70;;;;;;5066791;28;20027;-67
2021/09/17 10:16:55;;;;;;;4.32;3.85;;;25.50;44.40;;;;;;5069958;28;20359;-62
2021/09/17 10:19:21;;;;;;;11.07;4.25;;;25.10;45.50;;;;;;5067371;28;20122;-62
2021/09/17 10:21:53;;;;;;;9.07;4.88;;;24.80;46.00;;;;;;5069567;28;20314;-62
2021/09/17 10:24:39;;;;;;;4.22;3.47;;;24.70;46.50;;;;;;5067847;28;20024;-63
2021/09/17 10:27:12;;;;;;;7.85;4.50;;;24.80;46.00;;;;;;5067788;28;20079;-63
2021/09/17 10:29:55;;;;;;;5.22;3.78;;;25.20;45.80;;;;;;5071121;28;20095;-62
2021/09/17 10:32:26;;;;;;;4.57;3.30;;;25.50;45.20;;;;;;5071857;28;20048;-62
2021/09/17 10:35:10;;;;;;;7.50;3.60;;;25.70;44.30;;;;;;5071158;28;20726;-62
2021/09/17 10:38:16;;;;;;;7.85;3.50;;;25.70;44.30;;;;;;5070404;28;20028;-60
2021/09/17 10:40:53;;;;;;;6.70;3.35;;;25.60;44.10;;;;;;5071575;28;20089;-64
2021/09/17 10:43:38;;;;;;;10.27;3.00;;;25.40;44.60;;;;;;5071500;28;20085;-62
2021/09/17 10:46:07;;;;;;;9.13;3.00;;;25.30;45.00;;;;;;5070582;28;20025;-63
2021/09/17 10:48:41;;;;;;;5.50;2.92;;;25.20;45.10;;;;;;5070735;28;20107;-62
2021/09/17 10:51:09;;;;;;;5.53;3.15;;;25.00;45.90;;;;;;5070198;28;20041;-63
2021/09/17 10:53:55;;;;;;;8.13;2.90;;;24.90;46.00;;;;;;5071191;28;20031;-62
2021/09/17 10:56:20;;;;;;;5.28;2.67;;;24.70;46.20;;;;;;5071885;28;20048;-62
2021/09/17 10:59:15;;;;;;;4.95;2.83;;;24.50;45.80;;;;;;5071590;28;20060;-69
2021/09/17 11:02:03;;;;;;;11.30;2.78;;;24.50;46.10;;;;;;5071794;28;20471;-62
2021/09/17 11:04:41;;;;;;;6.88;2.58;;;24.80;45.80;;;;;;5070491;28;20108;-61
2021/09/17 11:10:04;;;;;;;6.87;2.47;;;25.20;44.50;;;;;;5070798;28;20043;-63
2021/09/17 11:12:32;;;;;;;10.02;2.40;;;25.20;44.50;;;;;;5069654;28;20528;-65
2021/09/17 11:15:17;;;;;;;12.88;2.72;;;25.00;45.80;;;;;;5068227;28;20033;-67
2021/09/17 11:17:56;;;;;;;5.85;1.90;;;25.00;46.50;;;;;;5071345;28;20032;-62
2021/09/17 11:20:24;;;;;;;5.80;2.17;;;24.80;45.30;;;;;;5071254;28;20020;-62
2021/09/17 11:23:02;;;;;;;15.60;2.85;;;24.90;45.50;;;;;;5070583;28;20043;-62
2021/09/17 11:25:35;;;;;;;7.82;1.60;;;25.10;44.40;;;;;;5069910;28;20079;-63
2021/09/17 11:28:27;;;;;;;15.38;2.03;;;25.10;43.60;;;;;;5051725;28;20060;-62
2021/09/17 11:30:53;;;;;;;2.58;1.08;;;25.20;43.90;;;;;;5052083;28;20032;-64
2021/09/17 11:33:19;;;;;;;6.18;1.58;;;25.40;42.60;;;;;;5052935;28;20028;-63
2021/09/17 11:35:46;;;;;;;5.95;1.25;;;25.40;42.10;;;;;;5069874;28;20078;-65
2021/09/17 11:38:12;;;;;;;6.78;1.50;;;25.60;42.20;;;;;;5069861;28;20024;-65
2021/09/17 11:40:49;;;;;;;4.20;1.42;;;25.80;42.20;;;;;;5052853;28;20033;-64
2021/09/17 11:43:16;;;;;;;4.93;1.20;;;25.80;41.80;;;;;;5052090;28;20043;-64
2021/09/17 11:45:54;;;;;;;2.78;1.17;;;25.80;42.20;;;;;;5068832;28;20060;-62
2021/09/17 11:48:24;;;;;;;8.73;2.38;;;25.80;43.00;;;;;;5052621;28;20032;-61
2021/09/17 11:50:51;;;;;;;6.47;1.77;;;25.90;42.70;;;;;;5070570;28;20032;-63
2021/09/17 11:53:17;;;;;;;5.15;1.63;;;25.80;42.60;;;;;;5053076;28;20051;-64
2021/09/17 11:55:45;;;;;;;11.25;2.20;;;25.70;43.40;;;;;;5051222;28;20024;-63
2021/09/17 11:58:11;;;;;;;7.63;2.00;;;25.60;43.30;;;;;;5070272;28;20017;-62
2021/09/17 12:00:37;;;;;;;4.10;2.08;;;25.60;43.60;;;;;;5051552;28;20058;-65
2021/09/17 12:03:07;;;;;;;3.70;1.90;;;25.70;43.60;;;;;;5070193;28;20066;-63
2021/09/17 12:05:41;;;;;;;6.43;1.90;;;25.80;43.40;;;;;;5052431;28;20130;-67
2021/09/17 12:08:07;;;;;;;3.65;1.25;;;25.90;43.40;;;;;;5050965;28;20040;-63
2021/09/17 12:10:38;;;;;;;3.67;1.50;;;26.00;43.00;;;;;;5070460;28;20442;-63
2021/09/17 12:13:08;;;;;;;4.20;2.75;;;26.10;42.40;;;;;;5052046;28;20028;-65
2021/09/17 12:15:42;;;;;;;4.13;1.52;;;26.10;42.40;;;;;;5052208;28;20093;-65
2021/09/17 12:18:10;;;;;;;7.63;1.90;;;26.00;42.10;;;;;;5070224;28;20039;-67
2021/09/17 12:20:56;;;;;;;7.22;2.35;;;25.70;43.00;;;;;;5070392;28;20028;-64
2021/09/17 12:23:31;;;;;;;5.72;2.00;;;25.30;43.60;;;;;;5052018;28;20056;-64
2021/09/17 12:26:07;;;;;;;5.05;1.55;;;25.30;44.50;;;;;;5068147;28;20048;-63
2021/09/17 12:28:33;;;;;;;5.38;2.80;;;25.30;44.40;;;;;;5071426;28;20052;-62
2021/09/17 12:30:59;;;;;;;3.70;1.98;;;25.50;44.50;;;;;;5054410;28;20127;-62
2021/09/17 12:33:26;;;;;;;4.07;2.10;;;25.60;44.10;;;;;;5055693;28;20442;-68
2021/09/17 12:36:06;;;;;;;13.13;2.83;;;25.80;44.00;;;;;;5054861;28;20074;-62
2021/09/17 12:38:32;;;;;;;5.30;1.73;;;25.90;43.40;;;;;;5073456;28;20036;-63
2021/09/17 12:41:00;;;;;;;5.80;1.70;;;26.10;43.40;;;;;;5073632;28;20035;-63
2021/09/17 12:43:31;;;;;;;7.28;1.90;;;26.00;42.70;;;;;;5073539;28;20025;-66
2021/09/17 12:46:15;;;;;;;12.38;2.83;;;25.90;42.90;;;;;;5072415;28;20535;-68
2021/09/17 12:48:47;;;;;;;5.13;1.67;;;25.80;41.50;;;;;;5055827;28;20024;-63
2021/09/17 12:51:27;;;;;;;3.35;1.70;;;25.80;41.50;;;;;;5055235;28;20047;-66